Time;durP1;ratioP1;P1;durP2;ratioP2;P2;SDS_P1;SDS_P2;PMS_P1;PMS_P2;Temp;Humidity;BMP_temperature;BMP_pressure;BME280_temperature;BME280_humidity;BME280_pressure;Samples;Min_cycle;Max_cycle;Signal;HPM_P1;HPM_P2
2021/04/09 00:00:57;;;;;;;23.70;12.45;;;;;;;10.03;46.74;101267.13;5052294;28;20068;-71
2021/04/09 00:03:24;;;;;;;24.15;12.65;;;;;;;9.92;46.36;101268.41;5050749;28;20167;-71
2021/04/09 00:05:51;;;;;;;22.63;13.52;;;;;;;10.01;46.37;101269.38;5032964;28;20056;-68
2021/04/09 00:08:18;;;;;;;21.52;13.07;;;;;;;9.83;46.50;101264.69;5052229;28;20495;-71
2021/04/09 00:10:48;;;;;;;22.10;12.93;;;;;;;9.83;45.88;101264.69;5034133;28;20371;-70
2021/04/09 00:13:15;;;;;;;25.80;13.00;;;;;;;9.52;46.64;101261.47;5049473;28;20292;-69
2021/04/09 00:15:42;;;;;;;20.02;12.48;;;;;;;9.52;46.21;101261.47;5033353;28;20079;-70
2021/04/09 00:18:09;;;;;;;25.50;12.52;;;;;;;9.55;46.35;101269.16;5016646;28;20045;-70
2021/04/09 00:20:38;;;;;;;32.72;13.55;;;;;;;9.60;46.23;101266.34;5050298;28;20052;-69
2021/04/09 00:23:05;;;;;;;23.05;13.23;;;;;;;9.41;46.41;101268.22;5050964;28;20068;-70
2021/04/09 00:25:32;;;;;;;21.52;12.77;;;;;;;9.49;46.00;101267.56;5044267;28;20061;-70
2021/04/09 00:27:59;;;;;;;26.80;13.60;;;;;;;9.46;46.46;101257.16;5034233;28;20045;-70
2021/04/09 00:30:27;;;;;;;22.02;12.73;;;;;;;9.69;45.89;101256.31;5040772;28;20049;-68
2021/04/09 00:32:57;;;;;;;23.00;12.02;;;;;;;9.74;45.46;101256.25;5051963;28;20059;-70
2021/04/09 00:35:27;;;;;;;24.60;12.77;;;;;;;9.68;45.92;101260.19;5034484;28;20060;-69
2021/04/09 00:37:54;;;;;;;20.83;11.75;;;;;;;9.73;45.54;101248.28;5051978;28;20045;-68
2021/04/09 00:40:21;;;;;;;22.45;11.82;;;;;;;9.63;45.19;101241.00;5050563;28;20356;-70
2021/04/09 00:42:48;;;;;;;20.42;10.73;;;;;;;9.80;44.77;101238.56;5032517;28;20056;-69
2021/04/09 00:45:19;;;;;;;25.35;11.32;;;;;;;9.56;45.32;101235.03;5050248;28;20180;-70
2021/04/09 00:47:47;;;;;;;21.58;11.73;;;;;;;9.71;44.80;101245.03;5051170;28;20053;-70
2021/04/09 00:50:16;;;;;;;;;;;;;;;9.91;44.44;101237.31;5034146;28;20053;-69
2021/04/09 00:52:47;;;;;;;20.80;11.05;;;;;;;10.00;44.00;101232.78;5018313;28;19997;-69
2021/04/09 00:55:15;;;;;;;18.65;10.25;;;;;;;9.90;43.65;101238.41;5033379;28;20037;-69
2021/04/09 00:57:50;;;;;;;19.42;10.10;;;;;;;9.75;44.50;101230.38;5034240;28;20491;-69
2021/04/09 01:00:18;;;;;;;18.60;10.40;;;;;;;9.66;44.79;101226.66;5016687;28;20053;-70
2021/04/09 01:02:45;;;;;;;15.95;9.05;;;;;;;9.80;44.17;101221.22;5051022;28;20045;-70
2021/04/09 01:05:15;;;;;;;20.42;9.38;;;;;;;9.78;43.91;101220.72;5049414;28;20052;-70
2021/04/09 01:07:44;;;;;;;18.42;9.10;;;;;;;9.40;44.71;101219.00;5051377;28;20053;-71
2021/04/09 01:10:29;;;;;;;20.10;10.50;;;;;;;9.60;44.64;101213.25;5051364;28;20067;-69
2021/04/09 01:12:56;;;;;;;26.60;12.88;;;;;;;9.58;44.72;101213.56;5051130;28;20387;-70
2021/04/09 01:15:26;;;;;;;16.38;9.82;;;;;;;9.59;44.45;101219.88;5052428;28;20048;-69
2021/04/09 01:18:30;;;;;;;14.30;8.55;;;;;;;9.69;44.25;101211.50;5020538;28;20045;-69
2021/04/09 01:21:17;;;;;;;22.15;9.35;;;;;;;9.76;44.05;101209.19;5034865;28;20041;-69
2021/04/09 01:23:54;;;;;;;17.77;8.90;;;;;;;9.74;44.13;101203.19;5053908;28;20045;-69
2021/04/09 01:31:03;;;;;;;16.25;9.00;;;;;;;9.68;44.48;101201.59;5055214;28;20049;-68
2021/04/09 01:33:36;;;;;;;17.17;9.30;;;;;;;9.63;44.21;101196.16;5036782;28;20049;-70
2021/04/09 01:36:09;;;;;;;13.27;8.98;;;;;;;9.48;44.81;101188.94;5036951;28;20068;-68
2021/04/09 01:38:42;;;;;;;14.57;8.95;;;;;;;9.45;44.62;101183.22;5020792;28;20040;-69
2021/04/09 01:41:11;;;;;;;17.73;9.40;;;;;;;9.63;44.51;101177.72;5053891;28;20068;-70
2021/04/09 01:48:08;;;;;;;20.63;9.80;;;;;;;9.43;45.23;101168.94;5052393;28;20045;-70
2021/04/09 01:50:38;;;;;;;19.60;10.80;;;;;;;9.43;45.02;101167.00;5053868;28;20068;-71
2021/04/09 01:53:07;;;;;;;20.90;10.27;;;;;;;9.35;45.37;101161.34;5036532;28;20057;-70
2021/04/09 01:55:45;;;;;;;19.65;11.05;;;;;;;9.35;45.21;101164.09;5017350;28;20046;-70
2021/04/09 02:02:38;;;;;;;17.92;11.23;;;;;;;9.33;45.64;101158.09;5032617;28;20060;-70
2021/04/09 02:05:09;;;;;;;23.58;11.45;;;;;;;9.44;45.26;101159.56;5016702;28;20146;-69
2021/04/09 02:07:36;;;;;;;18.15;10.93;;;;;;;9.32;45.34;101150.94;5016865;28;20499;-69
2021/04/09 02:10:04;;;;;;;21.92;11.70;;;;;;;9.20;46.02;101153.28;5017269;28;20488;-69
2021/04/09 02:17:10;;;;;;;21.25;11.48;;;;;;;9.18;46.26;101148.09;5033828;28;20045;-69
2021/04/09 02:19:40;;;;;;;18.83;11.60;;;;;;;9.19;45.98;101133.22;5016829;28;20061;-70
2021/04/09 02:22:13;;;;;;;20.48;11.55;;;;;;;8.94;46.83;101130.81;5034068;28;20061;-69
2021/04/09 02:24:40;;;;;;;26.92;11.40;;;;;;;8.95;46.61;101133.25;5033429;28;20145;-71
2021/04/09 02:27:14;;;;;;;20.77;11.18;;;;;;;9.01;46.71;101120.28;5034081;28;20045;-69
2021/04/09 02:29:43;;;;;;;19.67;11.32;;;;;;;9.12;46.46;101132.75;5033991;28;20056;-70
2021/04/09 02:32:12;;;;;;;20.02;11.02;;;;;;;8.97;46.57;101130.19;5030976;28;20054;-70
2021/04/09 02:34:42;;;;;;;23.42;11.93;;;;;;;8.89;47.07;101123.41;5002390;28;20080;-70
2021/04/09 02:37:09;;;;;;;20.23;11.13;;;;;;;8.87;46.78;101122.09;5016531;28;20069;-70
2021/04/09 02:39:39;;;;;;;16.13;10.30;;;;;;;8.87;47.00;101116.59;5033756;28;20061;-69
2021/04/09 02:42:09;;;;;;;25.88;10.95;;;;;;;8.77;47.11;101122.22;5032980;28;20073;-69
2021/04/09 02:49:13;;;;;;;22.55;10.85;;;;;;;8.72;47.82;101111.25;5033395;28;20042;-69
2021/04/09 02:51:42;;;;;;;17.80;10.18;;;;;;;8.82;47.68;101105.66;5032592;28;20070;-69
2021/04/09 02:54:10;;;;;;;19.60;10.82;;;;;;;8.58;48.01;101111.13;4999435;28;20069;-69
2021/04/09 02:56:39;;;;;;;22.88;11.68;;;;;;;8.63;48.14;101113.03;4999358;28;20053;-68
2021/04/09 02:59:09;;;;;;;21.55;11.77;;;;;;;8.61;48.19;101107.00;5016192;28;20462;-69
2021/04/09 03:01:43;;;;;;;20.70;11.25;;;;;;;8.40;49.02;101100.91;5033321;28;20114;-70
2021/04/09 03:04:11;;;;;;;20.10;12.23;;;;;;;8.51;48.74;101096.94;5033003;28;20060;-70
2021/04/09 03:06:56;;;;;;;25.45;12.85;;;;;;;8.71;48.21;101102.22;5031143;28;20052;-71
2021/04/09 03:09:42;;;;;;;26.40;12.40;;;;;;;8.76;48.08;101102.16;5025165;28;20392;-70
2021/04/09 03:12:12;;;;;;;19.80;11.82;;;;;;;8.63;48.65;101093.81;5033474;28;20048;-69
2021/04/09 03:14:43;;;;;;;21.40;11.80;;;;;;;8.50;48.96;101098.06;5033243;28;20052;-71
2021/04/09 03:17:14;;;;;;;24.70;12.77;;;;;;;8.62;48.72;101094.91;5032400;28;20053;-69
2021/04/09 03:19:44;;;;;;;19.55;12.20;;;;;;;8.47;49.12;101095.88;4999686;28;20049;-69
2021/04/09 03:22:14;;;;;;;18.10;12.27;;;;;;;8.45;49.52;101087.13;5031895;28;20053;-70
2021/04/09 03:24:41;;;;;;;21.45;12.40;;;;;;;8.44;49.31;101085.47;5033191;28;20449;-69
2021/04/09 03:27:14;;;;;;;23.90;13.05;;;;;;;8.44;49.30;101082.72;5032917;28;20072;-69
2021/04/09 03:29:47;;;;;;;25.77;13.00;;;;;;;8.50;49.43;101081.56;5032076;28;20053;-69
2021/04/09 03:32:15;;;;;;;23.25;12.50;;;;;;;8.61;49.12;101085.03;5014997;28;20046;-68
2021/04/09 03:34:42;;;;;;;22.25;13.60;;;;;;;8.35;49.82;101086.41;5015436;28;20077;-72
2021/04/09 03:37:12;;;;;;;20.10;12.80;;;;;;;8.25;50.06;101086.47;5032619;28;20045;-70
2021/04/09 03:39:39;;;;;;;24.13;12.98;;;;;;;8.49;49.68;101088.16;5032758;28;20045;-68
2021/04/09 03:42:06;;;;;;;24.38;13.23;;;;;;;8.56;49.55;101083.16;5014814;28;20041;-68
2021/04/09 03:44:35;;;;;;;22.70;13.07;;;;;;;8.65;49.34;101081.41;5013160;28;20057;-70
2021/04/09 03:47:03;;;;;;;22.13;13.05;;;;;;;8.22;50.44;101074.16;5031568;28;20061;-69
2021/04/09 03:49:33;;;;;;;30.13;13.63;;;;;;;8.39;50.21;101074.56;5029777;28;20118;-71
2021/04/09 03:52:01;;;;;;;26.27;12.68;;;;;;;8.57;50.20;101067.50;5032634;28;20060;-68
2021/04/09 03:54:33;;;;;;;22.60;13.07;;;;;;;8.42;50.51;101073.97;5027197;28;20060;-70
2021/04/09 03:57:04;;;;;;;21.40;12.55;;;;;;;8.58;49.73;101067.19;5035639;28;20400;-71
2021/04/09 03:59:31;;;;;;;21.88;13.38;;;;;;;8.46;49.98;101071.44;5051423;28;20068;-69
2021/04/09 04:01:58;;;;;;;24.80;13.57;;;;;;;8.64;49.59;101068.78;5034124;28;20045;-70
2021/04/09 04:04:25;;;;;;;24.52;12.35;;;;;;;8.61;49.77;101072.09;5052236;28;20052;-69
2021/04/09 04:06:52;;;;;;;22.13;12.48;;;;;;;8.45;50.03;101075.31;5051438;28;20147;-69
2021/04/09 04:09:19;;;;;;;22.60;13.55;;;;;;;8.52;50.25;101076.63;5033840;28;20444;-70
2021/04/09 04:11:46;;;;;;;21.13;13.05;;;;;;;8.50;49.92;101067.03;5016928;28;20057;-68
2021/04/09 04:14:16;;;;;;;22.73;12.70;;;;;;;8.48;50.10;101069.25;5034117;28;20523;-69
2021/04/09 04:16:43;;;;;;;30.35;13.05;;;;;;;8.30;50.53;101062.56;5051990;28;20385;-70
2021/04/09 04:19:17;;;;;;;22.38;12.32;;;;;;;8.38;49.97;101064.69;5035472;28;20048;-70
2021/04/09 04:21:47;;;;;;;22.38;12.68;;;;;;;8.39;50.14;101063.56;5052979;28;20502;-68
2021/04/09 04:24:14;;;;;;;22.50;11.80;;;;;;;8.36;49.79;101063.34;5051571;28;20049;-70
2021/04/09 04:26:41;;;;;;;19.52;12.60;;;;;;;8.59;49.49;101068.03;5051166;28;20526;-70
2021/04/09 04:29:26;;;;;;;25.75;13.10;;;;;;;8.45;49.53;101067.09;5059607;28;20060;-71
2021/04/09 04:31:53;;;;;;;23.20;12.88;;;;;;;8.28;50.10;101064.78;5051986;28;20376;-71
2021/04/09 04:34:22;;;;;;;29.10;14.02;;;;;;;8.36;49.93;101063.34;5051490;28;20499;-68
2021/04/09 04:36:49;;;;;;;26.65;13.15;;;;;;;8.42;49.59;101067.69;5051299;28;20507;-69
2021/04/09 04:39:16;;;;;;;27.25;13.43;;;;;;;8.19;49.99;101062.94;5051680;28;20365;-69
2021/04/09 04:41:49;;;;;;;23.30;13.32;;;;;;;8.22;50.01;101060.44;5034908;28;20049;-69
2021/04/09 04:44:16;;;;;;;22.88;13.55;;;;;;;8.16;50.39;101052.53;5033726;28;20052;-69
2021/04/09 04:46:43;;;;;;;25.02;13.32;;;;;;;8.17;50.59;101054.16;5034068;28;20049;-71
2021/04/09 04:49:29;;;;;;;23.70;14.43;;;;;;;7.93;51.23;101051.38;5050541;28;20420;-71
2021/04/09 04:51:56;;;;;;;22.75;14.82;;;;;;;8.12;50.89;101048.72;5050265;28;20052;-71
2021/04/09 04:54:25;;;;;;;23.90;14.20;;;;;;;8.05;50.97;101054.56;5051660;28;20049;-72
2021/04/09 04:56:58;;;;;;;22.40;14.23;;;;;;;8.04;51.16;101050.16;5049655;28;20315;-70
2021/04/09 04:59:27;;;;;;;22.58;13.70;;;;;;;7.92;51.50;101044.25;5033874;28;20060;-70
2021/04/09 05:01:53;;;;;;;28.88;15.00;;;;;;;7.97;51.41;101050.50;5051186;28;20041;-72
2021/04/09 05:04:24;;;;;;;26.48;15.07;;;;;;;7.86;51.90;101048.94;5034291;28;20109;-71
2021/04/09 05:06:51;;;;;;;24.50;14.60;;;;;;;7.70;52.44;101055.69;5050884;28;20471;-72
2021/04/09 05:09:18;;;;;;;23.88;14.65;;;;;;;7.77;52.70;101052.59;5051388;28;20132;-70
2021/04/09 05:12:03;;;;;;;23.83;15.40;;;;;;;7.63;53.32;101046.13;5022321;28;20037;-70
2021/04/09 05:14:31;;;;;;;28.77;15.07;;;;;;;7.62;53.58;101048.06;5033422;28;20048;-69
2021/04/09 05:17:02;;;;;;;25.58;14.65;;;;;;;7.60;53.46;101044.78;5034376;28;20151;-71
2021/04/09 05:19:29;;;;;;;26.00;14.55;;;;;;;7.62;53.30;101048.06;5018449;28;20476;-73
2021/04/09 05:22:16;;;;;;;27.17;15.85;;;;;;;7.79;52.71;101047.66;5050778;28;20052;-71
2021/04/09 05:24:45;;;;;;;24.52;15.20;;;;;;;7.77;52.86;101049.88;5050830;28;20079;-69
2021/04/09 05:27:17;;;;;;;29.40;15.98;;;;;;;7.80;52.82;101054.78;5033283;28;20059;-69
2021/04/09 05:29:45;;;;;;;24.15;15.32;;;;;;;7.49;53.68;101056.94;5033833;28;20056;-69
2021/04/09 05:32:12;;;;;;;26.35;15.20;;;;;;;7.54;53.35;101059.63;5050436;28;20056;-70
2021/04/09 05:34:45;;;;;;;31.45;14.98;;;;;;;7.78;53.14;101052.31;5050971;28;20056;-69
2021/04/09 05:37:15;;;;;;;21.13;14.27;;;;;;;7.89;52.26;101058.53;5050417;28;20048;-72
2021/04/09 05:39:42;;;;;;;27.40;14.90;;;;;;;7.70;53.11;101063.09;5033986;28;20041;-72
2021/04/09 05:42:09;;;;;;;27.02;14.82;;;;;;;7.86;52.60;101065.41;5049274;28;20051;-70
2021/04/09 05:44:36;;;;;;;28.27;15.20;;;;;;;7.73;53.06;101065.25;5017800;28;20049;-69
2021/04/09 05:47:04;;;;;;;31.52;14.82;;;;;;;7.81;52.73;101073.69;5032747;28;20049;-70
2021/04/09 05:49:32;;;;;;;26.08;14.55;;;;;;;7.81;52.85;101068.19;5017290;28;20041;-70
2021/04/09 05:52:02;;;;;;;24.75;14.13;;;;;;;7.72;52.85;101082.81;5048435;28;20472;-72
2021/04/09 05:54:29;;;;;;;27.60;15.63;;;;;;;7.55;53.45;101069.47;5050584;28;20072;-69
2021/04/09 05:56:55;;;;;;;24.60;14.80;;;;;;;7.75;53.33;101072.09;5048884;28;20064;-70
2021/04/09 05:59:23;;;;;;;25.50;14.77;;;;;;;7.70;53.45;101069.41;5051345;28;20053;-72
2021/04/09 06:01:50;;;;;;;30.55;15.90;;;;;;;7.63;53.40;101070.81;5051198;28;20045;-70
2021/04/09 06:04:17;;;;;;;26.23;16.13;;;;;;;7.68;53.17;101073.50;5050996;28;20048;-70
2021/04/09 06:06:47;;;;;;;30.60;14.88;;;;;;;7.78;53.33;101067.94;5051195;28;20195;-69
2021/04/09 06:09:13;;;;;;;29.00;14.25;;;;;;;7.80;52.81;101071.22;5054913;28;20053;-70
2021/04/09 06:11:40;;;;;;;27.13;15.15;;;;;;;7.85;53.16;101071.19;5054660;28;20372;-70
2021/04/09 06:14:28;;;;;;;33.80;15.02;;;;;;;7.64;53.40;101072.44;5049397;28;20041;-68
2021/04/09 06:16:55;;;;;;;30.02;15.73;;;;;;;7.77;53.17;101071.81;5036865;28;20060;-68
2021/04/09 06:19:41;;;;;;;33.95;14.93;;;;;;;7.87;52.93;101082.69;5046085;28;20058;-70
2021/04/09 06:22:08;;;;;;;27.98;15.85;;;;;;;8.13;52.09;101072.31;5036404;28;20053;-71
2021/04/09 06:24:37;;;;;;;27.10;15.10;;;;;;;7.98;51.84;101074.06;5054352;28;20151;-71
2021/04/09 06:27:05;;;;;;;33.17;15.30;;;;;;;7.89;52.25;101072.25;5052920;28;20049;-71
2021/04/09 06:29:32;;;;;;;27.23;15.27;;;;;;;7.78;52.48;101076.16;5036530;28;20045;-67
2021/04/09 06:32:04;;;;;;;38.50;14.75;;;;;;;7.95;52.22;101071.91;5054039;28;20053;-70
2021/04/09 06:34:32;;;;;;;29.67;14.48;;;;;;;8.02;52.06;101076.25;5053962;28;20056;-70
2021/04/09 06:36:58;;;;;;;35.85;15.27;;;;;;;7.88;52.06;101074.16;5053350;28;20056;-70
2021/04/09 06:39:25;;;;;;;31.50;14.18;;;;;;;8.04;52.24;101071.31;5035613;28;20053;-68
2021/04/09 06:41:52;;;;;;;32.95;14.48;;;;;;;8.19;52.27;101073.91;5054047;28;20056;-70
2021/04/09 06:44:22;;;;;;;28.13;13.75;;;;;;;8.43;51.64;101067.38;5053326;28;20059;-69
2021/04/09 06:51:16;;;;;;;23.27;14.05;;;;;;;8.43;50.98;101056.41;5053818;28;20041;-71
2021/04/09 06:53:47;;;;;;;25.38;14.07;;;;;;;8.38;51.00;101059.19;5036564;28;20049;-73
2021/04/09 06:56:33;;;;;;;27.02;13.43;;;;;;;8.30;50.51;101059.03;5047307;28;20061;-72
2021/04/09 06:59:00;;;;;;;29.70;13.93;;;;;;;8.54;50.41;101060.66;5034642;28;20491;-72
2021/04/09 07:01:46;;;;;;;30.45;13.70;;;;;;;8.54;50.14;101060.66;5038435;28;20044;-73
2021/04/09 07:04:13;;;;;;;36.20;14.75;;;;;;;8.45;49.99;101059.69;5034459;28;20044;-72
2021/04/09 07:06:40;;;;;;;31.90;14.20;;;;;;;8.49;50.78;101059.91;5033319;28;20329;-71
2021/04/09 07:09:13;;;;;;;34.78;14.50;;;;;;;8.69;49.66;101062.41;5052196;28;20060;-71
2021/04/09 07:11:40;;;;;;;;;;;;;;;8.53;49.52;101060.94;5051618;28;20049;-71
2021/04/09 07:14:10;;;;;;;24.98;13.82;;;;;;;8.64;49.69;101057.81;5033344;28;19940;-71
2021/04/09 07:16:55;;;;;;;23.35;14.00;;;;;;;8.62;49.00;101057.28;5035856;28;20056;-70
2021/04/09 07:19:35;;;;;;;24.35;13.40;;;;;;;8.56;49.40;101052.94;5034632;28;20045;-72
2021/04/09 07:22:06;;;;;;;30.30;13.70;;;;;;;8.85;48.61;101052.88;5035453;28;20044;-71
2021/04/09 07:24:35;;;;;;;27.00;13.50;;;;;;;8.82;48.40;101051.53;5053306;28;20041;-73
2021/04/09 07:27:03;;;;;;;34.67;13.95;;;;;;;8.75;48.07;101053.81;5035376;28;20053;-71
2021/04/09 07:29:30;;;;;;;23.42;13.00;;;;;;;8.83;48.10;101047.69;5034247;28;20044;-61
2021/04/09 07:32:15;;;;;;;20.73;12.85;;;;;;;10.14;45.77;101040.22;5053192;28;20049;-78
2021/04/09 07:35:03;;;;;;;27.25;13.23;;;;;;;9.68;46.16;101036.56;5037435;28;20472;-78
2021/04/09 07:37:47;;;;;;;23.27;13.13;;;;;;;9.70;46.26;101031.59;5036591;28;20052;-76
2021/04/09 07:40:25;;;;;;;24.85;13.55;;;;;;;9.82;46.48;101032.75;5058574;28;20053;-75
2021/04/09 07:42:56;;;;;;;30.52;12.77;;;;;;;9.92;45.19;101034.53;5040850;28;20049;-74
2021/04/09 07:50:04;;;;;;;30.10;13.13;;;;;;;10.35;44.43;101011.19;5032921;28;20060;-76
2021/04/09 07:52:48;;;;;;;26.08;12.27;;;;;;;10.36;44.40;101014.75;5053241;28;20372;-78
2021/04/09 07:55:20;;;;;;;31.38;13.15;;;;;;;10.15;44.17;101009.63;5052499;28;20472;-74
2021/04/09 07:57:53;;;;;;;29.35;12.20;;;;;;;10.18;43.62;101016.47;5052000;28;20049;-74
2021/04/09 08:00:28;;;;;;;24.35;12.52;;;;;;;10.73;43.35;101009.88;5051812;28;20049;-76
2021/04/09 08:02:56;;;;;;;26.02;11.70;;;;;;;10.47;43.13;101007.94;5051686;28;20384;-74
2021/04/09 08:05:27;;;;;;;24.15;12.20;;;;;;;10.43;42.56;101007.72;5018844;28;20052;-75
2021/04/09 08:08:18;;;;;;;29.80;11.75;;;;;;;10.79;43.09;101011.38;5051768;28;20071;-74
2021/04/09 08:10:45;;;;;;;24.05;11.50;;;;;;;11.02;41.36;101004.81;5053626;28;20049;-73
2021/04/09 08:13:15;;;;;;;26.45;11.77;;;;;;;10.96;40.77;101013.50;5035487;28;20500;-75
2021/04/09 08:15:44;;;;;;;24.65;11.13;;;;;;;10.74;41.30;101019.75;5051162;28;20062;-73
2021/04/09 08:18:33;;;;;;;23.15;11.50;;;;;;;10.72;40.89;101021.19;5036910;28;20049;-75
2021/04/09 08:21:00;;;;;;;30.40;11.55;;;;;;;10.96;40.27;101013.50;5031556;28;20142;-73
2021/04/09 08:23:28;;;;;;;23.13;11.40;;;;;;;11.26;39.68;101010.88;5033800;28;20491;-72
2021/04/09 08:25:58;;;;;;;26.92;10.50;;;;;;;11.44;39.09;101009.09;5051565;28;20052;-78
2021/04/09 08:28:25;;;;;;;23.63;10.68;;;;;;;11.33;38.82;101003.00;5033503;28;20052;-79
2021/04/09 08:30:52;;;;;;;26.85;10.95;;;;;;;11.49;38.23;101003.44;5046531;28;20048;-76
2021/04/09 08:33:19;;;;;;;20.52;10.45;;;;;;;11.68;38.94;101003.31;5034670;28;20049;-72
2021/04/09 08:35:46;;;;;;;20.10;10.75;;;;;;;11.57;38.02;101001.91;5033571;28;20368;-72
2021/04/09 08:38:15;;;;;;;25.60;11.27;;;;;;;11.60;37.75;100995.75;5052012;28;20049;-72
2021/04/09 08:40:42;;;;;;;26.70;11.60;;;;;;;11.66;38.19;101000.88;5051565;28;20052;-74
2021/04/09 08:43:18;;;;;;;24.88;12.48;;;;;;;11.85;37.99;101007.00;5031594;28;20056;-74
2021/04/09 08:45:50;;;;;;;24.48;10.73;;;;;;;12.13;37.21;101004.91;5035174;28;20045;-73
2021/04/09 08:48:18;;;;;;;28.35;11.25;;;;;;;12.23;36.61;101007.38;5034014;28;20049;-75
2021/04/09 08:50:45;;;;;;;21.65;10.77;;;;;;;12.26;36.16;101009.50;5046667;28;20049;-74
2021/04/09 08:53:28;;;;;;;22.73;10.65;;;;;;;12.57;35.71;101012.25;5052392;28;20045;-72
2021/04/09 08:55:56;;;;;;;22.55;10.40;;;;;;;12.72;34.86;101009.06;5047676;28;20056;-73
2021/04/09 08:58:26;;;;;;;19.98;10.13;;;;;;;12.89;34.66;101018.22;5034650;28;20395;-73
2021/04/09 09:01:09;;;;;;;21.42;9.55;;;;;;;13.01;34.56;101012.03;5050842;28;20053;-74
2021/04/09 09:03:37;;;;;;;23.77;10.45;;;;;;;12.99;34.71;101011.59;5049715;28;20041;-72
2021/04/09 09:06:09;;;;;;;25.25;10.25;;;;;;;13.09;34.37;101000.22;5034290;28;20044;-75
2021/04/09 09:08:41;;;;;;;26.13;11.35;;;;;;;13.13;34.77;100998.44;5033865;28;20403;-70
2021/04/09 09:11:10;;;;;;;29.73;10.82;;;;;;;12.98;34.94;101012.69;5051730;28;20361;-74
2021/04/09 09:13:44;;;;;;;35.90;11.40;;;;;;;12.86;34.93;101004.22;5048338;28;20056;-75
2021/04/09 09:16:18;;;;;;;22.17;10.38;;;;;;;12.93;34.29;100997.09;5032734;28;20052;-76
2021/04/09 09:18:54;;;;;;;21.73;8.63;;;;;;;13.28;33.40;100996.03;5051976;28;20049;-75
2021/04/09 09:21:28;;;;;;;18.33;8.23;;;;;;;13.41;32.83;100991.47;5051542;28;20060;-74
2021/04/09 09:24:19;;;;;;;33.20;14.45;;;;;;;13.57;33.03;100990.66;5051975;28;20147;-72
2021/04/09 09:26:49;;;;;;;25.33;9.00;;;;;;;13.76;32.23;100995.84;5054063;28;20166;-75
2021/04/09 09:29:28;;;;;;;17.92;9.27;;;;;;;14.04;32.41;100977.69;5035536;28;20056;-75
2021/04/09 09:36:16;;;;;;;23.35;10.73;;;;;;;14.08;31.15;100972.31;5052291;28;20053;-73
2021/04/09 09:38:55;;;;;;;20.77;9.60;;;;;;;13.97;31.98;100982.09;5037212;28;20053;-75
2021/04/09 09:41:35;;;;;;;18.33;8.98;;;;;;;14.00;31.90;100970.38;5052097;28;20055;-74
2021/04/09 09:44:28;;;;;;;13.43;7.20;;;;;;;14.33;31.46;100963.94;5056220;28;20076;-73
2021/04/09 09:50:53;;;;;;;15.63;7.82;;;;;;;14.09;32.13;100949.81;5058539;28;20045;-73
2021/04/09 09:53:24;;;;;;;20.63;7.85;;;;;;;13.95;32.28;100948.38;5034557;28;20056;-73
2021/04/09 09:55:52;;;;;;;15.07;7.32;;;;;;;14.07;31.92;100946.56;5056627;28;20068;-72
2021/04/09 09:58:37;;;;;;;29.33;7.72;;;;;;;14.17;31.09;100942.63;5054406;28;20059;-76
2021/04/09 10:01:07;;;;;;;20.30;8.32;;;;;;;14.38;32.15;100932.47;5037072;28;20045;-73
2021/04/09 10:08:03;;;;;;;16.10;7.00;;;;;;;14.28;31.25;100927.28;5053733;28;20103;-75
2021/04/09 10:10:44;;;;;;;21.67;7.72;;;;;;;14.42;31.03;100922.31;5038062;28;20049;-75
2021/04/09 10:13:33;;;;;;;14.07;7.75;;;;;;;14.28;31.63;100922.56;5052615;28;20064;-74
2021/04/09 10:16:16;;;;;;;20.98;7.40;;;;;;;14.64;30.36;100919.28;5036752;28;20049;-74
2021/04/09 10:18:48;;;;;;;15.73;6.53;;;;;;;14.55;30.92;100916.56;5055036;28;20048;-73
2021/04/09 10:21:35;;;;;;;15.48;7.32;;;;;;;14.39;30.43;100923.81;5054529;28;20056;-75
2021/04/09 10:24:04;;;;;;;16.73;6.65;;;;;;;14.26;30.31;100915.75;5038915;28;20049;-70
2021/04/09 10:26:38;;;;;;;15.82;6.70;;;;;;;14.39;30.08;100923.00;5055727;28;20369;-74
2021/04/09 10:29:19;;;;;;;19.33;6.53;;;;;;;14.64;29.99;100919.28;5054460;28;20236;-73
2021/04/09 10:31:46;;;;;;;13.57;6.30;;;;;;;14.78;29.88;100914.28;5055324;28;20064;-77
2021/04/09 10:34:13;;;;;;;16.17;7.30;;;;;;;14.97;29.91;100911.88;5054169;28;20045;-76
2021/04/09 10:36:45;;;;;;;13.85;6.43;;;;;;;15.23;30.03;100911.66;5037902;28;20044;-74
2021/04/09 10:39:15;;;;;;;18.98;6.00;;;;;;;15.44;29.29;100896.63;5054714;28;20064;-71
2021/04/09 10:42:03;;;;;;;13.02;5.53;;;;;;;15.76;29.43;100901.34;5053983;28;20071;-76
2021/04/09 10:44:39;;;;;;;11.48;5.28;;;;;;;15.86;28.81;100891.78;5054145;28;20115;-75
2021/04/09 10:47:07;;;;;;;16.80;5.15;;;;;;;16.15;29.22;100891.56;5033989;28;20060;-73
2021/04/09 10:49:57;;;;;;;17.63;5.63;;;;;;;16.13;28.05;100885.53;5053479;28;20168;-74
2021/04/09 10:52:29;;;;;;;10.63;6.45;;;;;;;16.29;29.39;100885.66;5053901;28;20053;-72
2021/04/09 10:55:02;;;;;;;15.15;6.60;;;;;;;16.16;28.98;100878.50;5034460;28;20083;-74
2021/04/09 10:57:42;;;;;;;17.02;6.10;;;;;;;16.10;29.32;100882.66;5053090;28;20049;-72
2021/04/09 11:00:10;;;;;;;12.60;5.60;;;;;;;16.11;29.26;100885.06;5035557;28;20053;-71
2021/04/09 11:02:38;;;;;;;14.50;5.78;;;;;;;16.19;29.23;100870.28;5053059;28;20071;-73
2021/04/09 11:05:06;;;;;;;14.13;5.85;;;;;;;16.26;29.32;100862.19;5053354;28;20408;-74
2021/04/09 11:07:45;;;;;;;25.55;6.18;;;;;;;16.49;29.26;100852.19;5050630;28;20148;-70
2021/04/09 11:10:36;;;;;;;10.48;5.63;;;;;;;16.53;28.71;100852.31;5052658;28;20060;-71
2021/04/09 11:13:04;;;;;;;12.52;6.00;;;;;;;16.60;29.72;100850.56;5018281;28;20055;-70
2021/04/09 11:15:41;;;;;;;13.80;5.80;;;;;;;16.53;29.31;100842.00;5029851;28;20052;-73
2021/04/09 11:18:08;;;;;;;13.70;6.32;;;;;;;16.67;29.15;100841.63;5034975;28;20399;-74
2021/04/09 11:20:46;;;;;;;11.98;6.07;;;;;;;16.58;28.77;100840.97;5034508;28;20353;-70
2021/04/09 11:23:38;;;;;;;11.93;6.05;;;;;;;16.64;28.94;100820.91;5038163;28;20037;-70
2021/04/09 11:26:17;;;;;;;14.70;5.22;;;;;;;16.99;29.02;100825.88;5053511;28;20068;-72
2021/04/09 11:29:18;;;;;;;9.48;5.25;;;;;;;17.19;28.35;100825.69;5052085;28;20072;-70
2021/04/09 11:31:48;;;;;;;11.13;5.20;;;;;;;17.04;28.30;100822.84;5051864;28;20056;-68
2021/04/09 11:38:49;;;;;;;11.75;5.47;;;;;;;17.19;28.61;100820.13;5051854;28;20052;-73
2021/04/09 11:41:26;;;;;;;10.20;4.78;;;;;;;17.21;28.79;100809.44;5034660;28;20053;-72
2021/04/09 11:43:53;;;;;;;9.35;4.55;;;;;;;16.88;28.57;100808.88;5050998;28;20128;-72
2021/04/09 11:46:38;;;;;;;11.43;4.97;;;;;;;16.92;28.67;100803.44;5051840;28;20049;-74
2021/04/09 11:53:37;;;;;;;11.00;5.40;;;;;;;17.25;29.36;100799.22;5050270;28;20041;-76
2021/04/09 11:56:06;;;;;;;14.50;5.10;;;;;;;17.22;29.10;100796.34;5050293;28;20420;-76
2021/04/09 11:58:41;;;;;;;12.07;5.30;;;;;;;17.23;29.47;100790.41;5033872;28;20384;-76
2021/04/09 12:01:08;;;;;;;12.02;6.10;;;;;;;17.13;28.92;100790.94;5052954;28;20392;-76
2021/04/09 12:03:45;;;;;;;11.95;5.70;;;;;;;17.14;28.78;100784.19;5035275;28;20068;-78
2021/04/09 12:10:42;;;;;;;14.45;5.72;;;;;;;16.42;29.52;100784.44;5052215;28;20484;-74
2021/04/09 12:13:16;;;;;;;13.02;5.25;;;;;;;16.54;29.64;100778.88;5035641;28;20067;-72
2021/04/09 12:15:43;;;;;;;16.42;6.28;;;;;;;16.85;29.08;100770.66;5029422;28;20056;-76
2021/04/09 12:18:10;;;;;;;13.43;5.68;;;;;;;16.95;28.93;100767.34;5033127;28;20048;-73
2021/04/09 12:20:51;;;;;;;12.63;5.85;;;;;;;17.25;28.90;100762.22;5044368;28;20483;-74
2021/04/09 12:23:19;;;;;;;11.40;5.63;;;;;;;17.35;28.28;100754.16;5033081;28;20064;-74
2021/04/09 12:26:10;;;;;;;12.68;5.22;;;;;;;17.30;29.62;100757.19;5050002;28;20048;-76
2021/04/09 12:28:41;;;;;;;10.30;5.07;;;;;;;17.40;28.58;100753.09;5034018;28;20057;-76
2021/04/09 12:31:08;;;;;;;13.00;5.70;;;;;;;17.50;28.85;100758.97;5051346;28;20048;-78
2021/04/09 12:33:35;;;;;;;12.10;5.20;;;;;;;17.72;29.05;100763.91;5051735;28;20122;-75
2021/04/09 12:36:04;;;;;;;10.43;5.15;;;;;;;18.03;29.37;100756.69;5033780;28;20060;-77